sensor_id;sensor_type;location;lat;lon;timestamp;temperature;humidity
6260;DHT22;3163;51.516;4.000;2023-05-09T00:01:37;17.20;99.90
6260;DHT22;3163;51.516;4.000;2023-05-09T00:04:04;17.30;99.90
6260;DHT22;3163;51.516;4.000;2023-05-09T00:06:30;17.30;99.90
6260;DHT22;3163;51.516;4.000;2023-05-09T00:08:56;17.30;99.90
6260;DHT22;3163;51.516;4.000;2023-05-09T00:11:22;17.30;99.90
6260;DHT22;3163;51.516;4.000;2023-05-09T00:13:48;17.20;99.90
6260;DHT22;3163;51.516;4.000;2023-05-09T00:16:15;17.20;99.90
6260;DHT22;3163;51.516;4.000;2023-05-09T00:18:42;17.30;99.90
6260;DHT22;3163;51.516;4.000;2023-05-09T00:21:09;17.10;99.90
6260;DHT22;3163;51.516;4.000;2023-05-09T00:23:36;17.20;99.90
6260;DHT22;3163;51.516;4.000;2023-05-09T00:26:01;17.20;99.90
6260;DHT22;3163;51.516;4.000;2023-05-09T00:28:27;17.30;99.90
6260;DHT22;3163;51.516;4.000;2023-05-09T00:30:53;17.30;99.90
6260;DHT22;3163;51.516;4.000;2023-05-09T00:33:19;17.20;99.90
6260;DHT22;3163;51.516;4.000;2023-05-09T00:35:45;17.20;99.90
6260;DHT22;3163;51.516;4.000;2023-05-09T00:38:11;17.20;99.90
6260;DHT22;3163;51.516;4.000;2023-05-09T00:40:36;17.20;99.90
6260;DHT22;3163;51.516;4.000;2023-05-09T00:43:02;17.30;99.90
6260;DHT22;3163;51.516;4.000;2023-05-09T00:45:29;17.30;99.90
6260;DHT22;3163;51.516;4.000;2023-05-09T00:47:56;17.30;99.90
6260;DHT22;3163;51.516;4.000;2023-05-09T00:50:25;17.30;99.90
6260;DHT22;3163;51.516;4.000;2023-05-09T00:52:51;17.30;99.90
6260;DHT22;3163;51.516;4.000;2023-05-09T00:55:17;17.30;99.90
6260;DHT22;3163;51.516;4.000;2023-05-09T00:57:43;17.30;99.90
6260;DHT22;3163;51.516;4.000;2023-05-09T01:00:10;17.30;99.90
6260;DHT22;3163;51.516;4.000;2023-05-09T01:02:40;17.40;99.90
6260;DHT22;3163;51.516;4.000;2023-05-09T01:05:07;17.30;99.90
6260;DHT22;3163;51.516;4.000;2023-05-09T01:08:06;17.30;99.90
6260;DHT22;3163;51.516;4.000;2023-05-09T01:10:42;17.30;99.90
6260;DHT22;3163;51.516;4.000;2023-05-09T01:13:17;17.20;99.90
6260;DHT22;3163;51.516;4.000;2023-05-09T01:16:06;17.30;99.90
6260;DHT22;3163;51.516;4.000;2023-05-09T01:18:46;17.20;99.90
6260;DHT22;3163;51.516;4.000;2023-05-09T01:21:22;17.10;99.90
6260;DHT22;3163;51.516;4.000;2023-05-09T01:29:35;16.90;99.90
6260;DHT22;3163;51.516;4.000;2023-05-09T01:32:08;17.00;99.90
6260;DHT22;3163;51.516;4.000;2023-05-09T01:34:37;16.90;99.90
6260;DHT22;3163;51.516;4.000;2023-05-09T01:37:05;16.70;99.90
6260;DHT22;3163;51.516;4.000;2023-05-09T01:39:33;16.80;99.90
6260;DHT22;3163;51.516;4.000;2023-05-09T01:42:01;16.80;99.90
6260;DHT22;3163;51.516;4.000;2023-05-09T01:44:34;17.00;99.90
6260;DHT22;3163;51.516;4.000;2023-05-09T01:47:02;16.70;99.90
6260;DHT22;3163;51.516;4.000;2023-05-09T01:49:30;16.00;99.90
6260;DHT22;3163;51.516;4.000;2023-05-09T01:51:58;16.00;99.90
6260;DHT22;3163;51.516;4.000;2023-05-09T01:54:25;16.30;99.90
6260;DHT22;3163;51.516;4.000;2023-05-09T01:56:53;16.50;99.90
6260;DHT22;3163;51.516;4.000;2023-05-09T01:59:20;16.50;99.90
6260;DHT22;3163;51.516;4.000;2023-05-09T02:01:48;16.00;99.90
6260;DHT22;3163;51.516;4.000;2023-05-09T02:04:15;16.40;99.90
6260;DHT22;3163;51.516;4.000;2023-05-09T02:06:42;16.60;99.90
6260;DHT22;3163;51.516;4.000;2023-05-09T02:09:10;16.60;99.90
6260;DHT22;3163;51.516;4.000;2023-05-09T02:11:35;16.60;99.90
6260;DHT22;3163;51.516;4.000;2023-05-09T02:14:01;16.80;99.90
6260;DHT22;3163;51.516;4.000;2023-05-09T02:16:27;16.90;99.90
6260;DHT22;3163;51.516;4.000;2023-05-09T02:18:54;16.90;99.90
6260;DHT22;3163;51.516;4.000;2023-05-09T02:21:19;16.80;99.90
6260;DHT22;3163;51.516;4.000;2023-05-09T02:23:45;16.60;99.90
6260;DHT22;3163;51.516;4.000;2023-05-09T02:26:11;16.90;99.90
6260;DHT22;3163;51.516;4.000;2023-05-09T02:28:38;16.90;99.90
6260;DHT22;3163;51.516;4.000;2023-05-09T02:31:05;16.90;99.90
6260;DHT22;3163;51.516;4.000;2023-05-09T02:33:34;16.70;99.90
6260;DHT22;3163;51.516;4.000;2023-05-09T02:36:01;16.60;99.90
6260;DHT22;3163;51.516;4.000;2023-05-09T02:38:27;16.70;99.90
6260;DHT22;3163;51.516;4.000;2023-05-09T02:40:53;16.90;99.90
6260;DHT22;3163;51.516;4.000;2023-05-09T02:43:18;16.50;99.90
6260;DHT22;3163;51.516;4.000;2023-05-09T02:45:44;16.60;99.90
6260;DHT22;3163;51.516;4.000;2023-05-09T02:48:10;16.60;99.90
6260;DHT22;3163;51.516;4.000;2023-05-09T02:50:35;16.40;99.90
6260;DHT22;3163;51.516;4.000;2023-05-09T02:53:04;16.70;99.90
6260;DHT22;3163;51.516;4.000;2023-05-09T02:55:29;16.80;99.90
6260;DHT22;3163;51.516;4.000;2023-05-09T02:57:56;16.80;99.90
6260;DHT22;3163;51.516;4.000;2023-05-09T03:00:22;16.60;99.90
6260;DHT22;3163;51.516;4.000;2023-05-09T03:02:50;16.70;99.90
6260;DHT22;3163;51.516;4.000;2023-05-09T03:05:16;16.10;99.90
6260;DHT22;3163;51.516;4.000;2023-05-09T03:07:42;16.20;99.90
6260;DHT22;3163;51.516;4.000;2023-05-09T03:10:09;16.40;99.90
6260;DHT22;3163;51.516;4.000;2023-05-09T03:12:37;16.50;99.90
6260;DHT22;3163;51.516;4.000;2023-05-09T03:15:07;16.60;99.90
6260;DHT22;3163;51.516;4.000;2023-05-09T03:17:33;16.60;99.90
6260;DHT22;3163;51.516;4.000;2023-05-09T03:19:59;16.50;99.90
6260;DHT22;3163;51.516;4.000;2023-05-09T03:22:24;16.70;99.90
6260;DHT22;3163;51.516;4.000;2023-05-09T03:24:50;16.60;99.90
6260;DHT22;3163;51.516;4.000;2023-05-09T03:27:17;16.80;99.90
6260;DHT22;3163;51.516;4.000;2023-05-09T03:29:43;16.90;99.90
6260;DHT22;3163;51.516;4.000;2023-05-09T03:32:08;16.90;99.90
6260;DHT22;3163;51.516;4.000;2023-05-09T03:34:34;16.90;99.90
6260;DHT22;3163;51.516;4.000;2023-05-09T03:36:59;16.90;99.90
6260;DHT22;3163;51.516;4.000;2023-05-09T03:39:25;16.80;99.90
6260;DHT22;3163;51.516;4.000;2023-05-09T03:41:51;17.00;99.90
6260;DHT22;3163;51.516;4.000;2023-05-09T03:44:16;16.90;99.90
6260;DHT22;3163;51.516;4.000;2023-05-09T03:46:42;17.10;99.90
6260;DHT22;3163;51.516;4.000;2023-05-09T03:49:08;16.90;99.90
6260;DHT22;3163;51.516;4.000;2023-05-09T03:51:33;17.00;99.90
6260;DHT22;3163;51.516;4.000;2023-05-09T03:53:59;17.00;99.90
6260;DHT22;3163;51.516;4.000;2023-05-09T03:56:25;17.00;99.90
6260;DHT22;3163;51.516;4.000;2023-05-09T03:58:51;17.00;99.90
6260;DHT22;3163;51.516;4.000;2023-05-09T04:01:16;16.90;99.90
6260;DHT22;3163;51.516;4.000;2023-05-09T04:03:42;16.90;99.90
6260;DHT22;3163;51.516;4.000;2023-05-09T04:06:08;16.90;99.90
6260;DHT22;3163;51.516;4.000;2023-05-09T04:08:33;16.90;99.90
6260;DHT22;3163;51.516;4.000;2023-05-09T04:10:59;16.90;99.90
6260;DHT22;3163;51.516;4.000;2023-05-09T04:13:25;17.00;99.90
6260;DHT22;3163;51.516;4.000;2023-05-09T04:15:51;17.00;99.90
6260;DHT22;3163;51.516;4.000;2023-05-09T04:18:16;17.00;99.90
6260;DHT22;3163;51.516;4.000;2023-05-09T04:20:42;17.00;99.90
6260;DHT22;3163;51.516;4.000;2023-05-09T04:23:08;17.00;99.90
6260;DHT22;3163;51.516;4.000;2023-05-09T04:25:33;16.90;99.90
6260;DHT22;3163;51.516;4.000;2023-05-09T04:27:59;17.00;99.90
6260;DHT22;3163;51.516;4.000;2023-05-09T04:30:25;17.00;99.90
6260;DHT22;3163;51.516;4.000;2023-05-09T04:32:52;17.00;99.90
6260;DHT22;3163;51.516;4.000;2023-05-09T04:35:18;17.00;99.90
6260;DHT22;3163;51.516;4.000;2023-05-09T04:37:43;17.00;99.90
6260;DHT22;3163;51.516;4.000;2023-05-09T04:40:10;16.90;99.90
6260;DHT22;3163;51.516;4.000;2023-05-09T04:42:36;16.70;99.90
6260;DHT22;3163;51.516;4.000;2023-05-09T04:45:02;16.80;99.90
6260;DHT22;3163;51.516;4.000;2023-05-09T04:47:27;16.90;99.90
6260;DHT22;3163;51.516;4.000;2023-05-09T04:49:53;16.70;99.90
6260;DHT22;3163;51.516;4.000;2023-05-09T04:52:19;16.80;99.90
6260;DHT22;3163;51.516;4.000;2023-05-09T04:54:44;16.70;99.90
6260;DHT22;3163;51.516;4.000;2023-05-09T04:57:10;16.80;99.90
6260;DHT22;3163;51.516;4.000;2023-05-09T04:59:36;16.50;99.90
6260;DHT22;3163;51.516;4.000;2023-05-09T05:02:02;16.60;99.90
6260;DHT22;3163;51.516;4.000;2023-05-09T05:04:28;16.40;99.90
6260;DHT22;3163;51.516;4.000;2023-05-09T05:06:53;16.30;99.90
6260;DHT22;3163;51.516;4.000;2023-05-09T05:09:19;16.50;99.90
6260;DHT22;3163;51.516;4.000;2023-05-09T05:11:45;16.70;99.90
6260;DHT22;3163;51.516;4.000;2023-05-09T05:14:10;16.10;99.90
6260;DHT22;3163;51.516;4.000;2023-05-09T05:16:36;16.50;99.90
6260;DHT22;3163;51.516;4.000;2023-05-09T05:19:02;16.70;99.90
6260;DHT22;3163;51.516;4.000;2023-05-09T05:21:27;16.90;99.90
6260;DHT22;3163;51.516;4.000;2023-05-09T05:23:53;16.90;99.90
6260;DHT22;3163;51.516;4.000;2023-05-09T05:26:19;17.00;99.90
6260;DHT22;3163;51.516;4.000;2023-05-09T05:28:45;17.10;99.90
6260;DHT22;3163;51.516;4.000;2023-05-09T05:31:11;17.00;99.90
6260;DHT22;3163;51.516;4.000;2023-05-09T05:33:36;16.90;99.90
6260;DHT22;3163;51.516;4.000;2023-05-09T05:36:02;17.20;99.90
6260;DHT22;3163;51.516;4.000;2023-05-09T05:38:28;17.20;99.90
6260;DHT22;3163;51.516;4.000;2023-05-09T05:40:53;17.00;99.90
6260;DHT22;3163;51.516;4.000;2023-05-09T05:43:19;17.00;99.90
6260;DHT22;3163;51.516;4.000;2023-05-09T05:45:44;17.20;99.90
6260;DHT22;3163;51.516;4.000;2023-05-09T05:48:10;17.20;99.90
6260;DHT22;3163;51.516;4.000;2023-05-09T05:50:35;17.40;99.90
6260;DHT22;3163;51.516;4.000;2023-05-09T05:53:01;17.50;99.90
6260;DHT22;3163;51.516;4.000;2023-05-09T05:55:27;17.50;99.90
6260;DHT22;3163;51.516;4.000;2023-05-09T05:57:53;17.60;99.90
6260;DHT22;3163;51.516;4.000;2023-05-09T06:00:18;17.70;99.90
6260;DHT22;3163;51.516;4.000;2023-05-09T06:02:45;17.40;99.90
6260;DHT22;3163;51.516;4.000;2023-05-09T06:05:12;17.60;99.90
6260;DHT22;3163;51.516;4.000;2023-05-09T06:07:38;17.60;99.90
6260;DHT22;3163;51.516;4.000;2023-05-09T06:10:06;17.40;99.90
6260;DHT22;3163;51.516;4.000;2023-05-09T06:12:32;17.40;99.90
6260;DHT22;3163;51.516;4.000;2023-05-09T06:14:57;17.70;99.90
6260;DHT22;3163;51.516;4.000;2023-05-09T06:17:23;17.70;99.90
6260;DHT22;3163;51.516;4.000;2023-05-09T06:19:49;17.70;99.90
6260;DHT22;3163;51.516;4.000;2023-05-09T06:22:14;17.50;99.90
6260;DHT22;3163;51.516;4.000;2023-05-09T06:24:40;17.60;99.90
6260;DHT22;3163;51.516;4.000;2023-05-09T06:27:06;17.70;99.90
6260;DHT22;3163;51.516;4.000;2023-05-09T06:29:31;17.50;99.90
6260;DHT22;3163;51.516;4.000;2023-05-09T06:31:57;17.70;99.90
6260;DHT22;3163;51.516;4.000;2023-05-09T06:34:22;17.40;99.90
6260;DHT22;3163;51.516;4.000;2023-05-09T06:36:48;17.40;99.90
6260;DHT22;3163;51.516;4.000;2023-05-09T06:39:13;17.40;99.90
6260;DHT22;3163;51.516;4.000;2023-05-09T06:41:39;17.60;99.90
6260;DHT22;3163;51.516;4.000;2023-05-09T06:44:05;17.60;99.90
6260;DHT22;3163;51.516;4.000;2023-05-09T06:46:31;17.60;99.90
6260;DHT22;3163;51.516;4.000;2023-05-09T06:48:56;17.70;99.90
6260;DHT22;3163;51.516;4.000;2023-05-09T06:51:22;17.30;99.90
6260;DHT22;3163;51.516;4.000;2023-05-09T06:53:48;17.60;99.90
6260;DHT22;3163;51.516;4.000;2023-05-09T06:56:13;17.80;99.90
6260;DHT22;3163;51.516;4.000;2023-05-09T06:58:39;17.40;99.90
6260;DHT22;3163;51.516;4.000;2023-05-09T07:01:05;17.60;99.90
6260;DHT22;3163;51.516;4.000;2023-05-09T07:03:30;17.90;99.90
6260;DHT22;3163;51.516;4.000;2023-05-09T07:05:56;17.80;99.90
6260;DHT22;3163;51.516;4.000;2023-05-09T07:08:23;17.80;99.90
6260;DHT22;3163;51.516;4.000;2023-05-09T07:10:49;17.90;99.90
6260;DHT22;3163;51.516;4.000;2023-05-09T07:13:15;17.70;99.90
6260;DHT22;3163;51.516;4.000;2023-05-09T07:15:40;17.50;99.90
6260;DHT22;3163;51.516;4.000;2023-05-09T07:18:06;17.50;99.90
6260;DHT22;3163;51.516;4.000;2023-05-09T07:20:32;17.60;99.90
6260;DHT22;3163;51.516;4.000;2023-05-09T07:22:57;17.90;99.90
6260;DHT22;3163;51.516;4.000;2023-05-09T07:25:23;18.00;99.90
6260;DHT22;3163;51.516;4.000;2023-05-09T07:27:48;17.90;99.90
6260;DHT22;3163;51.516;4.000;2023-05-09T07:30:14;17.90;99.90
6260;DHT22;3163;51.516;4.000;2023-05-09T07:32:40;17.90;99.90
6260;DHT22;3163;51.516;4.000;2023-05-09T07:35:05;17.90;99.90
6260;DHT22;3163;51.516;4.000;2023-05-09T07:37:32;17.90;99.90
6260;DHT22;3163;51.516;4.000;2023-05-09T07:39:57;17.70;99.90
6260;DHT22;3163;51.516;4.000;2023-05-09T07:42:23;17.60;99.90
6260;DHT22;3163;51.516;4.000;2023-05-09T07:44:49;17.40;99.90
6260;DHT22;3163;51.516;4.000;2023-05-09T07:47:14;17.30;99.90
6260;DHT22;3163;51.516;4.000;2023-05-09T07:49:40;17.60;99.90
6260;DHT22;3163;51.516;4.000;2023-05-09T07:52:07;17.40;99.90
6260;DHT22;3163;51.516;4.000;2023-05-09T07:54:33;17.80;99.90
6260;DHT22;3163;51.516;4.000;2023-05-09T07:56:59;17.90;99.90
6260;DHT22;3163;51.516;4.000;2023-05-09T07:59:24;17.40;99.90
6260;DHT22;3163;51.516;4.000;2023-05-09T08:01:50;17.90;99.90
6260;DHT22;3163;51.516;4.000;2023-05-09T08:04:15;18.10;99.90
6260;DHT22;3163;51.516;4.000;2023-05-09T08:06:41;17.80;99.90
6260;DHT22;3163;51.516;4.000;2023-05-09T08:09:07;17.60;99.90
6260;DHT22;3163;51.516;4.000;2023-05-09T08:11:33;17.70;99.90
6260;DHT22;3163;51.516;4.000;2023-05-09T08:13:59;17.70;99.90
6260;DHT22;3163;51.516;4.000;2023-05-09T08:16:25;17.60;99.90
6260;DHT22;3163;51.516;4.000;2023-05-09T08:18:50;18.00;99.90
6260;DHT22;3163;51.516;4.000;2023-05-09T08:21:16;18.10;99.90
6260;DHT22;3163;51.516;4.000;2023-05-09T08:23:42;18.30;99.90
6260;DHT22;3163;51.516;4.000;2023-05-09T08:26:07;18.10;99.90
6260;DHT22;3163;51.516;4.000;2023-05-09T08:28:33;18.20;99.90
6260;DHT22;3163;51.516;4.000;2023-05-09T08:30:58;18.30;99.90
6260;DHT22;3163;51.516;4.000;2023-05-09T08:33:24;18.30;99.90
6260;DHT22;3163;51.516;4.000;2023-05-09T08:35:51;18.10;99.90
6260;DHT22;3163;51.516;4.000;2023-05-09T08:38:17;18.00;99.90
6260;DHT22;3163;51.516;4.000;2023-05-09T08:40:43;18.20;99.90
6260;DHT22;3163;51.516;4.000;2023-05-09T08:43:08;18.20;99.90
6260;DHT22;3163;51.516;4.000;2023-05-09T08:45:50;18.20;99.90
6260;DHT22;3163;51.516;4.000;2023-05-09T08:48:17;18.30;99.90
6260;DHT22;3163;51.516;4.000;2023-05-09T08:50:43;18.00;99.90
6260;DHT22;3163;51.516;4.000;2023-05-09T08:53:10;18.20;99.90
6260;DHT22;3163;51.516;4.000;2023-05-09T08:55:36;18.00;99.90
6260;DHT22;3163;51.516;4.000;2023-05-09T08:58:02;18.00;99.90
6260;DHT22;3163;51.516;4.000;2023-05-09T09:00:28;18.00;99.90
6260;DHT22;3163;51.516;4.000;2023-05-09T09:02:57;18.20;99.90
6260;DHT22;3163;51.516;4.000;2023-05-09T09:05:25;18.20;99.90
6260;DHT22;3163;51.516;4.000;2023-05-09T09:07:51;18.20;99.90
6260;DHT22;3163;51.516;4.000;2023-05-09T09:10:17;18.00;99.90
6260;DHT22;3163;51.516;4.000;2023-05-09T09:12:45;18.10;99.90
6260;DHT22;3163;51.516;4.000;2023-05-09T09:15:15;18.20;99.90
6260;DHT22;3163;51.516;4.000;2023-05-09T09:17:42;18.20;99.90
6260;DHT22;3163;51.516;4.000;2023-05-09T09:20:13;18.30;99.90
6260;DHT22;3163;51.516;4.000;2023-05-09T09:22:42;18.30;99.90
6260;DHT22;3163;51.516;4.000;2023-05-09T09:25:08;18.20;99.90
6260;DHT22;3163;51.516;4.000;2023-05-09T09:27:34;18.40;99.90
6260;DHT22;3163;51.516;4.000;2023-05-09T09:30:10;18.40;99.90
6260;DHT22;3163;51.516;4.000;2023-05-09T09:32:36;18.20;99.90
6260;DHT22;3163;51.516;4.000;2023-05-09T09:35:05;18.20;99.90
6260;DHT22;3163;51.516;4.000;2023-05-09T09:37:33;18.40;99.90
6260;DHT22;3163;51.516;4.000;2023-05-09T09:39:59;18.40;99.90
6260;DHT22;3163;51.516;4.000;2023-05-09T09:42:25;18.40;99.90
6260;DHT22;3163;51.516;4.000;2023-05-09T09:44:56;18.40;99.90
6260;DHT22;3163;51.516;4.000;2023-05-09T09:47:33;18.30;99.90
6260;DHT22;3163;51.516;4.000;2023-05-09T09:50:12;18.40;99.90
6260;DHT22;3163;51.516;4.000;2023-05-09T09:55:07;14.80;99.90
6260;DHT22;3163;51.516;4.000;2023-05-09T09:57:34;14.50;99.90
6260;DHT22;3163;51.516;4.000;2023-05-09T10:00:02;14.40;99.90
6260;DHT22;3163;51.516;4.000;2023-05-09T10:02:28;14.30;99.90
6260;DHT22;3163;51.516;4.000;2023-05-09T10:04:54;14.20;99.90
6260;DHT22;3163;51.516;4.000;2023-05-09T10:07:21;14.20;99.90
6260;DHT22;3163;51.516;4.000;2023-05-09T10:09:48;15.40;99.90
6260;DHT22;3163;51.516;4.000;2023-05-09T10:12:14;16.70;99.90
6260;DHT22;3163;51.516;4.000;2023-05-09T10:14:44;17.30;99.90
6260;DHT22;3163;51.516;4.000;2023-05-09T10:17:13;17.60;99.90
6260;DHT22;3163;51.516;4.000;2023-05-09T10:19:44;17.90;99.90
6260;DHT22;3163;51.516;4.000;2023-05-09T10:22:13;18.00;99.90
6260;DHT22;3163;51.516;4.000;2023-05-09T10:24:46;17.90;99.90
6260;DHT22;3163;51.516;4.000;2023-05-09T10:27:13;18.00;99.90
6260;DHT22;3163;51.516;4.000;2023-05-09T10:29:49;18.10;99.90
6260;DHT22;3163;51.516;4.000;2023-05-09T10:35:16;18.10;99.90
6260;DHT22;3163;51.516;4.000;2023-05-09T10:37:42;18.20;99.90
6260;DHT22;3163;51.516;4.000;2023-05-09T10:40:10;18.30;99.90
6260;DHT22;3163;51.516;4.000;2023-05-09T10:42:42;18.40;99.90
6260;DHT22;3163;51.516;4.000;2023-05-09T10:45:09;18.40;99.90
6260;DHT22;3163;51.516;4.000;2023-05-09T10:47:36;18.40;99.90
6260;DHT22;3163;51.516;4.000;2023-05-09T10:50:02;18.20;99.90
6260;DHT22;3163;51.516;4.000;2023-05-09T10:52:31;18.30;99.90
6260;DHT22;3163;51.516;4.000;2023-05-09T10:55:02;18.40;99.90
6260;DHT22;3163;51.516;4.000;2023-05-09T10:57:29;18.40;99.90
6260;DHT22;3163;51.516;4.000;2023-05-09T10:59:56;18.30;99.90
6260;DHT22;3163;51.516;4.000;2023-05-09T11:02:22;18.40;99.90
6260;DHT22;3163;51.516;4.000;2023-05-09T11:07:39;18.40;99.90
6260;DHT22;3163;51.516;4.000;2023-05-09T11:10:09;18.50;99.90
6260;DHT22;3163;51.516;4.000;2023-05-09T11:12:57;18.40;99.90
6260;DHT22;3163;51.516;4.000;2023-05-09T11:15:23;18.30;99.90
6260;DHT22;3163;51.516;4.000;2023-05-09T11:18:06;18.40;99.90
6260;DHT22;3163;51.516;4.000;2023-05-09T11:20:36;18.40;99.90
6260;DHT22;3163;51.516;4.000;2023-05-09T11:23:07;18.40;99.90
6260;DHT22;3163;51.516;4.000;2023-05-09T11:25:33;18.30;99.90
6260;DHT22;3163;51.516;4.000;2023-05-09T11:28:01;18.30;99.90
6260;DHT22;3163;51.516;4.000;2023-05-09T11:30:47;18.40;99.90
6260;DHT22;3163;51.516;4.000;2023-05-09T11:33:25;18.10;99.90
6260;DHT22;3163;51.516;4.000;2023-05-09T11:36:20;18.10;99.90
6260;DHT22;3163;51.516;4.000;2023-05-09T11:39:08;18.40;99.90
6260;DHT22;3163;51.516;4.000;2023-05-09T11:41:47;18.50;99.90
6260;DHT22;3163;51.516;4.000;2023-05-09T11:44:14;18.40;99.90
6260;DHT22;3163;51.516;4.000;2023-05-09T11:46:41;18.50;99.90
6260;DHT22;3163;51.516;4.000;2023-05-09T11:49:07;18.50;99.90
6260;DHT22;3163;51.516;4.000;2023-05-09T11:51:35;18.60;99.90
6260;DHT22;3163;51.516;4.000;2023-05-09T11:54:03;18.60;99.90
6260;DHT22;3163;51.516;4.000;2023-05-09T11:56:29;18.60;99.90
6260;DHT22;3163;51.516;4.000;2023-05-09T11:58:55;18.50;99.90
6260;DHT22;3163;51.516;4.000;2023-05-09T12:01:21;18.60;99.90
6260;DHT22;3163;51.516;4.000;2023-05-09T12:03:47;18.50;99.90
6260;DHT22;3163;51.516;4.000;2023-05-09T12:06:17;18.50;99.90
6260;DHT22;3163;51.516;4.000;2023-05-09T12:08:46;18.50;99.90
6260;DHT22;3163;51.516;4.000;2023-05-09T12:11:13;18.60;99.90
6260;DHT22;3163;51.516;4.000;2023-05-09T12:13:47;18.60;99.90
6260;DHT22;3163;51.516;4.000;2023-05-09T12:16:13;18.60;99.90
6260;DHT22;3163;51.516;4.000;2023-05-09T12:18:44;18.50;99.90
6260;DHT22;3163;51.516;4.000;2023-05-09T12:21:09;18.50;99.90
6260;DHT22;3163;51.516;4.000;2023-05-09T12:23:36;18.60;99.90
6260;DHT22;3163;51.516;4.000;2023-05-09T12:26:02;18.40;99.90
6260;DHT22;3163;51.516;4.000;2023-05-09T12:28:27;18.50;99.90
6260;DHT22;3163;51.516;4.000;2023-05-09T12:30:53;18.40;99.90
6260;DHT22;3163;51.516;4.000;2023-05-09T12:33:19;18.40;99.90
6260;DHT22;3163;51.516;4.000;2023-05-09T12:36:07;18.40;99.90
6260;DHT22;3163;51.516;4.000;2023-05-09T12:38:33;18.50;99.90
6260;DHT22;3163;51.516;4.000;2023-05-09T12:41:07;18.60;99.90
6260;DHT22;3163;51.516;4.000;2023-05-09T12:43:34;18.50;99.90
6260;DHT22;3163;51.516;4.000;2023-05-09T12:46:01;18.50;99.90
6260;DHT22;3163;51.516;4.000;2023-05-09T12:48:28;18.40;99.90
6260;DHT22;3163;51.516;4.000;2023-05-09T12:50:54;18.40;99.90
6260;DHT22;3163;51.516;4.000;2023-05-09T12:53:23;18.40;99.90
6260;DHT22;3163;51.516;4.000;2023-05-09T12:55:52;18.50;99.90
6260;DHT22;3163;51.516;4.000;2023-05-09T12:58:18;18.50;99.90
6260;DHT22;3163;51.516;4.000;2023-05-09T13:00:44;18.50;99.90
6260;DHT22;3163;51.516;4.000;2023-05-09T13:03:26;18.50;99.90
6260;DHT22;3163;51.516;4.000;2023-05-09T13:05:58;18.50;99.90
6260;DHT22;3163;51.516;4.000;2023-05-09T13:08:24;18.60;99.90
6260;DHT22;3163;51.516;4.000;2023-05-09T13:10:50;18.60;99.90
6260;DHT22;3163;51.516;4.000;2023-05-09T13:13:16;18.60;99.90
6260;DHT22;3163;51.516;4.000;2023-05-09T13:15:42;18.60;99.90
6260;DHT22;3163;51.516;4.000;2023-05-09T13:18:09;18.70;99.90
6260;DHT22;3163;51.516;4.000;2023-05-09T13:20:35;18.60;99.90
6260;DHT22;3163;51.516;4.000;2023-05-09T13:23:00;18.50;99.90
6260;DHT22;3163;51.516;4.000;2023-05-09T13:25:26;18.50;99.90
6260;DHT22;3163;51.516;4.000;2023-05-09T13:27:51;18.60;99.90
6260;DHT22;3163;51.516;4.000;2023-05-09T13:30:17;18.60;99.90
6260;DHT22;3163;51.516;4.000;2023-05-09T13:32:43;18.50;99.90
6260;DHT22;3163;51.516;4.000;2023-05-09T13:35:09;18.40;99.90
6260;DHT22;3163;51.516;4.000;2023-05-09T13:37:34;18.40;99.90
6260;DHT22;3163;51.516;4.000;2023-05-09T13:40:01;18.50;99.90
6260;DHT22;3163;51.516;4.000;2023-05-09T13:42:27;18.40;99.90
6260;DHT22;3163;51.516;4.000;2023-05-09T13:44:52;18.50;99.90
6260;DHT22;3163;51.516;4.000;2023-05-09T13:47:18;18.60;99.90
6260;DHT22;3163;51.516;4.000;2023-05-09T13:49:44;18.60;99.90
6260;DHT22;3163;51.516;4.000;2023-05-09T13:52:09;18.60;99.90
6260;DHT22;3163;51.516;4.000;2023-05-09T13:54:35;18.60;99.90
6260;DHT22;3163;51.516;4.000;2023-05-09T13:57:02;18.60;99.90
6260;DHT22;3163;51.516;4.000;2023-05-09T13:59:29;18.60;99.90
6260;DHT22;3163;51.516;4.000;2023-05-09T14:01:55;18.50;99.90
6260;DHT22;3163;51.516;4.000;2023-05-09T14:04:23;18.40;99.90
6260;DHT22;3163;51.516;4.000;2023-05-09T14:06:48;18.30;99.90
6260;DHT22;3163;51.516;4.000;2023-05-09T14:09:14;18.30;99.90
6260;DHT22;3163;51.516;4.000;2023-05-09T14:11:41;18.30;99.90
6260;DHT22;3163;51.516;4.000;2023-05-09T14:14:06;18.40;99.90
6260;DHT22;3163;51.516;4.000;2023-05-09T14:16:32;18.40;99.90
6260;DHT22;3163;51.516;4.000;2023-05-09T14:18:58;18.50;99.90
6260;DHT22;3163;51.516;4.000;2023-05-09T14:21:24;18.60;99.90
6260;DHT22;3163;51.516;4.000;2023-05-09T14:23:49;18.60;99.90
6260;DHT22;3163;51.516;4.000;2023-05-09T14:26:16;18.60;99.90
6260;DHT22;3163;51.516;4.000;2023-05-09T14:28:42;18.70;99.90
6260;DHT22;3163;51.516;4.000;2023-05-09T14:31:09;18.70;99.90
6260;DHT22;3163;51.516;4.000;2023-05-09T14:33:34;18.70;99.90
6260;DHT22;3163;51.516;4.000;2023-05-09T14:36:01;18.60;99.90
6260;DHT22;3163;51.516;4.000;2023-05-09T14:38:27;18.50;99.90
6260;DHT22;3163;51.516;4.000;2023-05-09T14:40:54;18.60;99.90
6260;DHT22;3163;51.516;4.000;2023-05-09T14:43:20;18.60;99.90
6260;DHT22;3163;51.516;4.000;2023-05-09T14:45:46;18.60;99.90
6260;DHT22;3163;51.516;4.000;2023-05-09T14:48:12;18.60;99.90
6260;DHT22;3163;51.516;4.000;2023-05-09T14:50:38;18.60;99.90
6260;DHT22;3163;51.516;4.000;2023-05-09T14:53:03;18.70;99.90
6260;DHT22;3163;51.516;4.000;2023-05-09T14:55:29;18.70;99.90
6260;DHT22;3163;51.516;4.000;2023-05-09T14:57:56;18.60;99.90
6260;DHT22;3163;51.516;4.000;2023-05-09T15:00:22;18.70;99.90
6260;DHT22;3163;51.516;4.000;2023-05-09T15:02:48;18.60;99.90
6260;DHT22;3163;51.516;4.000;2023-05-09T15:05:14;18.60;99.90
6260;DHT22;3163;51.516;4.000;2023-05-09T15:07:41;18.50;99.90
6260;DHT22;3163;51.516;4.000;2023-05-09T15:10:06;18.40;99.90
6260;DHT22;3163;51.516;4.000;2023-05-09T15:12:32;18.50;99.90
6260;DHT22;3163;51.516;4.000;2023-05-09T15:15:17;18.60;99.90
6260;DHT22;3163;51.516;4.000;2023-05-09T15:17:43;18.60;99.90
6260;DHT22;3163;51.516;4.000;2023-05-09T15:20:10;18.60;99.90
6260;DHT22;3163;51.516;4.000;2023-05-09T15:22:36;18.60;99.90
6260;DHT22;3163;51.516;4.000;2023-05-09T15:25:02;18.50;99.90
6260;DHT22;3163;51.516;4.000;2023-05-09T15:27:29;18.60;99.90
6260;DHT22;3163;51.516;4.000;2023-05-09T15:29:55;18.60;99.90
6260;DHT22;3163;51.516;4.000;2023-05-09T15:32:21;18.60;99.90
6260;DHT22;3163;51.516;4.000;2023-05-09T15:34:46;18.60;99.90
6260;DHT22;3163;51.516;4.000;2023-05-09T15:37:12;18.60;99.90
6260;DHT22;3163;51.516;4.000;2023-05-09T15:39:38;18.50;99.90
6260;DHT22;3163;51.516;4.000;2023-05-09T15:42:14;18.50;99.90
6260;DHT22;3163;51.516;4.000;2023-05-09T15:44:41;18.60;99.90
6260;DHT22;3163;51.516;4.000;2023-05-09T15:47:07;18.70;99.90
6260;DHT22;3163;51.516;4.000;2023-05-09T15:49:33;18.70;99.90
6260;DHT22;3163;51.516;4.000;2023-05-09T15:51:59;18.60;99.90
6260;DHT22;3163;51.516;4.000;2023-05-09T15:54:24;18.60;99.90
6260;DHT22;3163;51.516;4.000;2023-05-09T15:56:51;18.60;99.90
6260;DHT22;3163;51.516;4.000;2023-05-09T15:59:17;18.60;99.90
6260;DHT22;3163;51.516;4.000;2023-05-09T16:01:43;18.60;99.90
6260;DHT22;3163;51.516;4.000;2023-05-09T16:04:09;18.60;99.90
6260;DHT22;3163;51.516;4.000;2023-05-09T16:06:35;18.60;99.90
6260;DHT22;3163;51.516;4.000;2023-05-09T16:09:01;18.50;99.90
6260;DHT22;3163;51.516;4.000;2023-05-09T16:11:29;18.40;99.90
6260;DHT22;3163;51.516;4.000;2023-05-09T16:13:54;18.50;99.90
6260;DHT22;3163;51.516;4.000;2023-05-09T16:16:20;18.60;99.90